METAR AND TAF INFORMATION
METAR FOR EPPO
ADDS - METARS form results

(0044 UTC 15 November 2019)
Data provider http://aviationweather.gov/metar/data/
 
METAR text: EPPO 150030Z 09011KT 9999 OVC008 04/03 Q1013
Conditions at: EPPO (POZNAN/LAWICA , PL) observed 0030 UTC 15 November 2019
Temperature: 4.0°C (39°F)
Dewpoint: 3.0°C (37°F) [RH = 93%]
Pressure (altimeter): 29.91 inches Hg (1013.0 mb)
Winds: from the E (90 degrees) at 13 MPH (11 knots; 5.7 m/s)
Visibility: 6 or more miles (10+ km)
Ceiling: 800 feet AGL
Clouds: overcast cloud deck at 800 feet AGL
Weather: no significant weather observed at this time

METAR text: EPPO 150000Z 09012KT 9999 OVC009 04/02 Q1013
Conditions at: EPPO (POZNAN/LAWICA , PL) observed 0000 UTC 15 November 2019
Temperature: 4.0°C (39°F)
Dewpoint: 2.0°C (36°F) [RH = 87%]
Pressure (altimeter): 29.91 inches Hg (1013.0 mb)
Winds: from the E (90 degrees) at 14 MPH (12 knots; 6.2 m/s)
Visibility: 6 or more miles (10+ km)
Ceiling: 900 feet AGL
Clouds: overcast cloud deck at 900 feet AGL
Weather: no significant weather observed at this time

Forecast for: EPPO (POZNAN/LAWICA , PL)
Text: TAF EPPO 142330Z 1500/1524 11012KT 8000 BKN010
Forecast period: 0000 UTC 15 November 2019 to 0000 UTC 16 November 2019
Forecast type: FROM: standard forecast or significant change
Winds: from the ESE (110 degrees) at 14 MPH (12 knots; 6.2 m/s)
Visibility: 5 miles (8 km)
Ceiling: 1000 feet AGL
Clouds: broken clouds at 1000 feet AGL
Weather: no significant weather forecast for this period
Text: TEMPO 1500/1524 4000 BR BKN004 BKN008
Forecast period: 0000 UTC 15 November 2019 to 0000 UTC 16 November 2019
Forecast type: TEMPORARY: The following changes expected for less than half the time period
Visibility: 2.49 miles (4.01 km)
Ceiling: 400 feet AGL
Clouds: broken clouds at 400 feet AGL
broken clouds at 800 feet AGL
Weather: BR  (mist)
Text: PROB40 1509/1521 0500 FG OVC001
Forecast period: 0900 to 2100 UTC 15 November 2019
Forecast type: PROBABLE: 40 percent likelihood of the following during this time
Visibility: 0.31 miles (0.50 km)
Ceiling: 100 feet AGL
Clouds: overcast cloud deck at 100 feet AGL
Weather: FG  (fog)

 AIRPORT MAP

 RUNWAY INFORMATION
Runway 02 Runway length 2296 ft Runway width 984 ft
Runway elevation 0 ft Runway displaced threshold 0 ft Runway heading 0
Runway 20 Runway length 2296 ft Runway width 984 ft
Runway elevation 0 ft Runway displaced threshold 0 ft Runway heading 0
Runway 10 Runway length 8215 ft Runway width 164 ft
Runway elevation 308 ft Runway displaced threshold 0 ft Runway heading 108
Runway 28 Runway length 8215 ft Runway width 164 ft
Runway elevation 289 ft Runway displaced threshold 0 ft Runway heading 288

 AIRPORT FREQUENCIES
Type APP Name POZNAN APP Frequency 135.525 MHZ
Type ATIS Name POZNAN ATI Frequency 124.7 MHZ
Type TWR Name POZNAN TWR Frequency 119.975 MHZ

 AIRPORT NEAR NAVIGATION AIDS
Type NDB Name Poznan Frequency 429 KHZ



Powered by Virtual Airlines Manager [v2.6.2]